UPSVAC Airport Information Service

Guadalajara International Airport

ICAO: MMGL Country: Mexico
Latitude: 20.5218 Longitude: -103.311
Latest Arrival : UPS1541 (KSDF-MMGL) Latest Departure : UPS94 (MMGL-KSDF)


WX CaptureLIVE
Data provided by noaa.gov | Fetched at 17:36:09

METAR : MMGL 281646Z 00000KT 6SM SCT020 23/15 A3022 RMK 8/100 HZY AC

TAF : MMGL 281104Z 2812/2918 02010KT P6SM SCT010 BKN020CB OVC090 TX29/2822Z TN18/2812Z TEMPO 2812/2815 5SM -TSRA OVC010CB FM281500 02005KT 6SM HZ SCT020 BKN080 BKN300 FM281800 06010KT P6SM SCT030 BKN300 TEMPO 2822/2902 5SM TSRA OVC020CB FM290400 08008KT 6SM HZ SCT020 BKN080 TEMPO 2906/2910 6SM -RA BKN015CB FM291600 03005KT 6SM HZ SCT020 BKN300


Runway Data for MMGL
Data provided by openaviationdata.com

Runway ID Mag Var Hdg Length Elevation Surface ILS Freq ILS Id ILS Slope
2 8 22° 5998 ft 5015 ft Asphalt -- -- --
10 8 106° 13134 ft 5015 ft Asphalt 110.1 IAIG 3
20 8 202° 5998 ft 5015 ft Asphalt -- -- --
28 8 286° 13134 ft 5015 ft Asphalt 111.3 IGDL 2

Guadalajara International Airport, Mexico
Use only for reference purposes



Not for navigational purposes.